createdAt,value
2018-06-21T00:01:41.485Z,24.77
2018-06-21T00:04:08.793Z,26.37
2018-06-21T00:06:36.065Z,24.90
2018-06-21T00:09:04.969Z,23.07
2018-06-21T00:11:32.277Z,22.40
2018-06-21T00:13:59.660Z,24.77
2018-06-21T00:16:26.944Z,25.23
2018-06-21T00:18:54.209Z,28.73
2018-06-21T00:21:21.630Z,24.87
2018-06-21T00:23:48.909Z,24.47
2018-06-21T00:26:16.185Z,23.97
2018-06-21T00:28:43.477Z,23.97
2018-06-21T00:31:10.773Z,23.60
2018-06-21T00:33:38.049Z,24.63
2018-06-21T00:36:05.322Z,25.50
2018-06-21T00:38:32.604Z,25.10
2018-06-21T00:40:59.873Z,24.47
2018-06-21T00:43:27.137Z,24.63
2018-06-21T00:45:54.418Z,24.47
2018-06-21T00:48:21.722Z,25.43
2018-06-21T00:50:49.001Z,25.17
2018-06-21T00:53:16.295Z,23.13
2018-06-21T00:55:49.278Z,26.07
2018-06-21T00:58:16.561Z,25.97
2018-06-21T01:00:43.840Z,23.67
2018-06-21T01:03:11.120Z,24.00
2018-06-21T01:05:38.418Z,24.60
2018-06-21T01:08:05.697Z,23.10
2018-06-21T01:10:32.981Z,25.60
2018-06-21T01:13:00.281Z,26.80
2018-06-21T01:15:27.561Z,24.70
2018-06-21T01:17:54.833Z,24.73
2018-06-21T01:20:22.132Z,26.43
2018-06-21T01:22:49.665Z,24.13
2018-06-21T01:25:17.021Z,24.67
2018-06-21T01:27:44.288Z,24.90
2018-06-21T01:30:11.577Z,25.90
2018-06-21T01:32:38.889Z,25.07
2018-06-21T01:35:06.185Z,25.47
2018-06-21T01:37:33.461Z,26.93
2018-06-21T01:40:00.754Z,28.63
2018-06-21T01:42:28.029Z,27.43
2018-06-21T01:44:55.449Z,27.80
2018-06-21T01:47:22.741Z,25.10
2018-06-21T01:49:50.039Z,29.50
2018-06-21T01:52:17.310Z,25.73
2018-06-21T01:54:44.620Z,27.33
2018-06-21T01:57:11.918Z,28.73
2018-06-21T01:59:39.189Z,23.77
2018-06-21T02:02:06.529Z,28.00
2018-06-21T02:04:33.797Z,27.47
2018-06-21T02:07:01.169Z,26.57
2018-06-21T02:09:28.428Z,27.07
2018-06-21T02:11:55.689Z,27.70
2018-06-21T02:14:22.940Z,25.20
2018-06-21T02:16:50.232Z,27.53
2018-06-21T02:19:17.521Z,28.10
2018-06-21T02:21:44.813Z,27.03
2018-06-21T02:24:12.109Z,29.10
2018-06-21T02:26:39.479Z,28.37
2018-06-21T02:29:06.753Z,27.13
2018-06-21T02:31:34.024Z,28.40
2018-06-21T02:34:01.319Z,26.10
2018-06-21T02:36:28.598Z,25.37
2018-06-21T02:38:55.886Z,26.00
2018-06-21T02:41:23.201Z,26.50
2018-06-21T02:43:50.493Z,24.10
2018-06-21T02:46:17.761Z,22.97
2018-06-21T02:48:45.073Z,20.47
2018-06-21T02:51:12.361Z,20.03
2018-06-21T02:53:39.641Z,18.60
2018-06-21T02:56:06.926Z,17.63
2018-06-21T02:58:34.214Z,14.97
2018-06-21T03:01:01.498Z,13.97
2018-06-21T03:03:28.813Z,11.10
2018-06-21T03:05:56.077Z,11.90
2018-06-21T03:08:23.344Z,11.83
2018-06-21T03:10:50.622Z,10.40
2018-06-21T03:13:17.889Z,9.50
2018-06-21T03:15:45.194Z,7.37
2018-06-21T03:18:12.458Z,7.03
2018-06-21T03:20:39.721Z,6.77
2018-06-21T03:23:07.000Z,5.23
2018-06-21T03:25:34.333Z,3.57
2018-06-21T03:28:01.621Z,3.63
2018-06-21T03:30:28.872Z,3.73
2018-06-21T03:32:56.145Z,3.40
2018-06-21T03:35:23.488Z,3.13
2018-06-21T03:37:50.773Z,4.00
2018-06-21T03:40:18.081Z,3.13
2018-06-21T03:42:45.368Z,3.83
2018-06-21T03:45:12.697Z,4.60
2018-06-21T03:47:39.994Z,3.53
2018-06-21T03:50:07.293Z,3.67
2018-06-21T03:52:34.625Z,4.57
2018-06-21T03:55:01.922Z,4.50
2018-06-21T03:57:29.209Z,4.70
2018-06-21T03:59:56.481Z,5.20
2018-06-21T04:02:23.757Z,6.07
2018-06-21T04:04:51.033Z,5.07
2018-06-21T04:07:18.315Z,5.00
2018-06-21T04:09:45.620Z,6.10
2018-06-21T04:12:12.992Z,5.97
2018-06-21T04:14:40.276Z,4.83
2018-06-21T04:17:07.568Z,5.00
2018-06-21T04:19:34.871Z,5.73
2018-06-21T04:22:02.175Z,5.77
2018-06-21T04:24:29.445Z,4.93
2018-06-21T04:26:56.817Z,4.00
2018-06-21T04:29:24.212Z,4.20
2018-06-21T04:31:51.528Z,4.27
2018-06-21T04:34:18.824Z,4.93
2018-06-21T04:36:46.126Z,4.30
2018-06-21T04:39:13.441Z,4.10
2018-06-21T04:41:40.719Z,3.80
2018-06-21T04:44:08.029Z,4.27
2018-06-21T04:46:35.333Z,3.20
2018-06-21T04:49:02.646Z,4.20
2018-06-21T04:51:29.958Z,3.00
2018-06-21T04:53:57.401Z,3.00
2018-06-21T04:56:24.678Z,3.50
2018-06-21T04:58:52.081Z,3.23
2018-06-21T05:01:19.366Z,3.33
2018-06-21T05:03:46.665Z,4.00
2018-06-21T05:06:13.930Z,4.33
2018-06-21T05:08:41.212Z,4.43
2018-06-21T05:11:08.520Z,4.80
2018-06-21T05:13:35.937Z,4.33
2018-06-21T05:16:03.209Z,4.10
2018-06-21T05:18:30.562Z,4.13
2018-06-21T05:20:57.874Z,4.20
2018-06-21T05:23:25.140Z,3.40
2018-06-21T05:25:52.417Z,4.10
2018-06-21T05:28:19.696Z,3.70
2018-06-21T05:30:47.185Z,3.70
2018-06-21T05:33:14.464Z,3.80
2018-06-21T05:35:41.774Z,2.97
2018-06-21T05:38:09.038Z,2.87
2018-06-21T05:40:36.813Z,3.57
2018-06-21T05:43:04.576Z,3.03
2018-06-21T05:45:32.354Z,3.30
2018-06-21T05:48:00.724Z,2.80
2018-06-21T05:50:29.006Z,4.20
2018-06-21T05:52:57.201Z,3.67
2018-06-21T05:55:24.492Z,3.17
2018-06-21T05:57:51.801Z,2.50
2018-06-21T06:00:19.073Z,3.10
2018-06-21T06:02:46.365Z,3.37
2018-06-21T06:05:13.725Z,3.23
2018-06-21T06:07:41.001Z,2.90
2018-06-21T06:10:08.332Z,2.37
2018-06-21T06:12:35.612Z,2.57
2018-06-21T06:15:03.530Z,5.57
2018-06-21T06:17:31.090Z,4.10
2018-06-21T06:19:58.817Z,2.70
2018-06-21T06:22:26.222Z,1.73
2018-06-21T06:24:53.558Z,3.10
2018-06-21T06:27:20.837Z,2.70
2018-06-21T06:29:48.256Z,2.23
2018-06-21T06:32:15.538Z,4.00
2018-06-21T06:34:42.859Z,3.07
2018-06-21T06:37:10.181Z,2.70
2018-06-21T06:39:37.448Z,2.90
2018-06-21T06:42:04.750Z,3.00
2018-06-21T06:44:32.066Z,1.97
2018-06-21T06:46:59.341Z,3.37
2018-06-21T06:49:26.813Z,2.33
2018-06-21T06:51:54.082Z,2.80
2018-06-21T06:54:21.372Z,2.73
2018-06-21T06:56:48.621Z,2.80
2018-06-21T06:59:15.912Z,1.70
2018-06-21T07:01:43.181Z,2.30
2018-06-21T07:04:10.628Z,1.53
2018-06-21T07:06:37.929Z,1.93
2018-06-21T07:09:06.429Z,2.80
2018-06-21T07:11:33.725Z,3.23
2018-06-21T07:14:00.981Z,4.30
2018-06-21T07:16:28.261Z,3.60
2018-06-21T07:18:55.557Z,2.80
2018-06-21T07:21:22.825Z,2.33
2018-06-21T07:23:50.373Z,1.97
2018-06-21T07:26:17.654Z,2.10
2018-06-21T07:28:44.941Z,2.77
2018-06-21T07:31:12.616Z,2.30
2018-06-21T07:33:39.965Z,2.20
2018-06-21T07:36:07.222Z,1.77
2018-06-21T07:38:34.505Z,3.17
2018-06-21T07:41:01.785Z,1.90
2018-06-21T07:43:29.089Z,2.37
2018-06-21T07:45:56.407Z,2.50
2018-06-21T07:48:23.698Z,2.07
2018-06-21T07:50:50.962Z,2.33
2018-06-21T07:53:18.234Z,1.67
2018-06-21T07:55:45.510Z,2.10
2018-06-21T07:58:12.813Z,2.20
2018-06-21T08:00:40.085Z,2.10
2018-06-21T08:03:07.344Z,1.90
2018-06-21T08:05:34.622Z,2.30
2018-06-21T08:08:01.894Z,1.87
2018-06-21T08:10:29.169Z,1.80
2018-06-21T08:12:56.496Z,2.10
2018-06-21T08:15:23.734Z,1.70
2018-06-21T08:17:51.061Z,1.80
2018-06-21T08:20:18.337Z,1.53
2018-06-21T08:22:45.627Z,1.40
2018-06-21T08:25:12.937Z,2.50
2018-06-21T08:27:40.248Z,1.57
2018-06-21T08:30:07.566Z,2.40
2018-06-21T08:32:35.077Z,1.90
2018-06-21T08:35:02.358Z,1.60
2018-06-21T08:37:29.697Z,1.20
2018-06-21T08:39:56.981Z,1.40
2018-06-21T08:42:24.268Z,1.07
2018-06-21T08:44:51.581Z,1.17
2018-06-21T08:47:18.957Z,1.57
2018-06-21T08:49:46.273Z,1.60
2018-06-21T08:52:13.577Z,1.40
2018-06-21T08:54:40.865Z,1.47
2018-06-21T08:57:08.148Z,1.70
2018-06-21T08:59:35.422Z,1.60
2018-06-21T09:02:02.737Z,1.70
2018-06-21T09:04:30.017Z,1.30
2018-06-21T09:06:57.625Z,2.00
2018-06-21T09:09:25.117Z,1.33
2018-06-21T09:11:52.540Z,1.57
2018-06-21T09:14:19.837Z,1.60
2018-06-21T09:16:47.142Z,2.43
2018-06-21T09:19:14.432Z,1.67
2018-06-21T09:21:41.694Z,1.33
2018-06-21T09:24:08.952Z,1.40
2018-06-21T09:26:36.257Z,1.30
2018-06-21T09:29:03.761Z,1.40
2018-06-21T09:31:31.037Z,1.40
2018-06-21T09:33:58.535Z,1.33
2018-06-21T09:36:25.852Z,1.70
2018-06-21T09:38:58.768Z,1.70
2018-06-21T09:42:35.615Z,1.30
2018-06-21T09:45:02.951Z,2.00
2018-06-21T09:47:35.989Z,1.70
2018-06-21T09:50:03.285Z,1.00
2018-06-21T09:52:31.512Z,1.90
2018-06-21T09:54:58.769Z,1.50
2018-06-21T09:57:26.076Z,1.90
2018-06-21T09:59:53.380Z,1.23
2018-06-21T10:02:20.692Z,1.33
2018-06-21T10:04:47.961Z,1.50
2018-06-21T10:07:15.359Z,1.80
2018-06-21T10:09:42.877Z,1.70
2018-06-21T10:12:10.185Z,1.53
2018-06-21T10:14:37.461Z,1.53
2018-06-21T10:17:07.421Z,1.90
2018-06-21T10:19:34.856Z,1.17
2018-06-21T10:22:02.157Z,1.20
2018-06-21T10:24:29.457Z,1.10
2018-06-21T10:26:56.764Z,1.97
2018-06-21T10:29:24.045Z,1.03
2018-06-21T10:31:51.320Z,1.30
2018-06-21T10:34:18.762Z,0.70
2018-06-21T10:36:46.052Z,1.23
2018-06-21T10:39:13.369Z,1.10
2018-06-21T10:41:40.810Z,1.10
2018-06-21T10:44:08.102Z,0.90
2018-06-21T10:46:35.406Z,0.97
2018-06-21T10:49:02.749Z,1.03
2018-06-21T10:51:30.038Z,1.20
2018-06-21T10:53:57.312Z,1.20
2018-06-21T10:56:24.613Z,2.10
2018-06-21T10:58:51.882Z,1.37
2018-06-21T11:01:19.282Z,1.77
2018-06-21T11:03:46.585Z,1.40
2018-06-21T11:06:13.865Z,1.63
2018-06-21T11:08:41.209Z,2.20
2018-06-21T11:11:08.473Z,1.60
2018-06-21T11:13:35.769Z,3.57
2018-06-21T11:16:03.057Z,1.50
2018-06-21T11:18:30.336Z,2.33
2018-06-21T11:20:57.620Z,1.83
2018-06-21T11:23:24.901Z,1.67
2018-06-21T11:25:52.186Z,1.40
2018-06-21T11:28:19.689Z,2.40
2018-06-21T11:30:47.110Z,2.10
2018-06-21T11:33:14.410Z,1.80
2018-06-21T11:35:42.052Z,1.20
2018-06-21T11:38:09.400Z,1.30
2018-06-21T11:40:36.753Z,1.13
2018-06-21T11:43:04.110Z,1.30
2018-06-21T11:45:31.405Z,1.10
2018-06-21T11:47:58.695Z,2.47
2018-06-21T11:50:25.960Z,1.50
2018-06-21T11:52:53.247Z,0.90
2018-06-21T11:55:20.573Z,1.20
2018-06-21T11:57:47.932Z,1.20
2018-06-21T12:00:15.209Z,1.97
2018-06-21T12:02:42.508Z,1.00
2018-06-21T12:05:09.831Z,0.93
2018-06-21T12:07:37.148Z,1.10
2018-06-21T12:10:04.449Z,1.70
2018-06-21T12:12:31.757Z,1.53
2018-06-21T12:14:59.048Z,1.43
2018-06-21T12:17:26.397Z,1.30
2018-06-21T12:19:53.722Z,1.10
2018-06-21T12:22:21.013Z,0.73
2018-06-21T12:24:48.300Z,1.13
2018-06-21T12:27:15.651Z,1.60
2018-06-21T12:29:42.925Z,1.13
2018-06-21T12:32:10.210Z,3.40
2018-06-21T12:34:38.138Z,1.73
2018-06-21T12:37:05.709Z,1.93
2018-06-21T12:39:32.972Z,1.10
2018-06-21T12:42:00.281Z,1.00
2018-06-21T12:44:27.550Z,0.90
2018-06-21T12:46:54.824Z,1.53
2018-06-21T12:49:22.213Z,1.23
2018-06-21T12:51:49.493Z,0.83
2018-06-21T12:54:16.788Z,1.27
2018-06-21T12:56:44.093Z,1.37
2018-06-21T12:59:11.403Z,0.73
2018-06-21T13:01:38.672Z,0.70
2018-06-21T13:04:05.977Z,0.50
2018-06-21T13:06:33.269Z,0.93
2018-06-21T13:09:06.205Z,0.90
2018-06-21T13:11:39.305Z,0.80
2018-06-21T13:14:12.458Z,0.73
2018-06-21T13:16:39.770Z,0.60
2018-06-21T13:19:07.069Z,0.60
2018-06-21T13:21:34.364Z,0.60
2018-06-21T13:24:01.668Z,0.77
2018-06-21T13:26:28.938Z,0.60
2018-06-21T13:28:56.224Z,0.93
2018-06-21T13:31:23.489Z,0.60
2018-06-21T13:33:50.870Z,0.83
2018-06-21T13:36:18.164Z,0.67
2018-06-21T13:38:45.644Z,1.03
2018-06-21T13:41:12.909Z,0.70
2018-06-21T13:43:40.240Z,0.70
2018-06-21T13:46:07.505Z,0.70
2018-06-21T13:48:34.805Z,0.80
2018-06-21T13:51:02.125Z,0.80
2018-06-21T13:53:29.418Z,0.60
2018-06-21T13:55:56.698Z,0.60
2018-06-21T13:58:24.005Z,0.90
2018-06-21T14:00:51.296Z,0.70
2018-06-21T14:03:18.665Z,0.70
2018-06-21T14:05:46.005Z,0.60
2018-06-21T14:08:13.330Z,0.60
2018-06-21T14:10:40.564Z,0.70
2018-06-21T14:13:07.848Z,1.23
2018-06-21T14:15:35.172Z,1.03
2018-06-21T14:18:02.455Z,0.53
2018-06-21T14:20:29.750Z,0.73
2018-06-21T14:22:57.022Z,0.80
2018-06-21T14:25:24.301Z,0.70
2018-06-21T14:27:51.605Z,0.90
2018-06-21T14:30:18.893Z,0.83
2018-06-21T14:32:46.197Z,1.30
2018-06-21T14:35:13.533Z,0.93
2018-06-21T14:37:40.835Z,0.93
2018-06-21T14:40:08.337Z,0.90
2018-06-21T14:42:35.611Z,0.70
2018-06-21T14:45:02.898Z,0.60
2018-06-21T14:47:30.189Z,0.50
2018-06-21T14:49:57.471Z,0.70
2018-06-21T14:52:24.789Z,0.80
2018-06-21T14:54:52.098Z,0.87
2018-06-21T14:57:19.421Z,1.00
2018-06-21T14:59:46.713Z,0.50
2018-06-21T15:02:13.996Z,0.63
2018-06-21T15:04:41.284Z,0.60
2018-06-21T15:07:08.565Z,0.90
2018-06-21T15:09:35.839Z,3.40
2018-06-21T15:12:03.125Z,0.57
2018-06-21T15:14:30.474Z,0.70
2018-06-21T15:16:57.721Z,0.70
2018-06-21T15:19:24.994Z,0.70
2018-06-21T15:21:52.318Z,0.77
2018-06-21T15:24:19.585Z,0.63
2018-06-21T15:26:46.897Z,0.50
2018-06-21T15:29:14.152Z,1.07
2018-06-21T15:31:41.432Z,0.70
2018-06-21T15:34:08.733Z,0.80
2018-06-21T15:36:36.002Z,0.97
2018-06-21T15:39:09.156Z,0.70
2018-06-21T15:41:36.673Z,0.67
2018-06-21T15:44:03.957Z,0.90
2018-06-21T15:46:31.239Z,0.80
2018-06-21T15:48:58.516Z,0.80
2018-06-21T15:51:25.782Z,0.60
2018-06-21T15:53:53.085Z,1.27
2018-06-21T15:56:20.373Z,1.13
2018-06-21T15:58:47.638Z,1.50
2018-06-21T16:01:14.950Z,0.90
2018-06-21T16:03:42.245Z,1.40
2018-06-21T16:06:09.557Z,1.40
2018-06-21T16:08:36.842Z,1.10
2018-06-21T16:11:04.148Z,1.00
2018-06-21T16:13:31.410Z,0.90
2018-06-21T16:15:58.699Z,0.70
2018-06-21T16:18:26.029Z,1.23
2018-06-21T16:20:53.325Z,1.30
2018-06-21T16:23:20.600Z,1.23
2018-06-21T16:25:47.869Z,1.00
2018-06-21T16:28:15.151Z,1.73
2018-06-21T16:30:42.569Z,1.10
2018-06-21T16:33:09.857Z,1.43
2018-06-21T16:35:37.149Z,1.03
2018-06-21T16:38:04.518Z,1.03
2018-06-21T16:40:31.812Z,1.60
2018-06-21T16:42:59.255Z,1.60
2018-06-21T16:45:26.810Z,1.73
2018-06-21T16:47:54.129Z,1.20
2018-06-21T16:50:21.441Z,1.30
2018-06-21T16:52:48.717Z,1.20
2018-06-21T16:55:16.063Z,1.50
2018-06-21T16:57:43.387Z,1.47
2018-06-21T17:00:10.677Z,1.30
2018-06-21T17:02:38.190Z,1.63
2018-06-21T17:05:05.431Z,1.33
2018-06-21T17:07:32.725Z,1.57
2018-06-21T17:09:59.994Z,1.57
2018-06-21T17:12:27.781Z,1.47
2018-06-21T17:14:55.114Z,1.60
2018-06-21T17:17:22.467Z,1.00
2018-06-21T17:19:49.769Z,1.30
2018-06-21T17:22:17.072Z,1.37
2018-06-21T17:24:44.386Z,1.10
2018-06-21T17:27:11.660Z,1.30
2018-06-21T17:29:38.948Z,1.90
2018-06-21T17:32:06.229Z,1.67
2018-06-21T17:34:33.573Z,1.47
2018-06-21T17:37:00.862Z,1.63
2018-06-21T17:39:28.154Z,1.10
2018-06-21T17:41:55.485Z,1.10
2018-06-21T17:44:22.958Z,1.93
2018-06-21T17:46:50.226Z,1.23
2018-06-21T17:49:17.505Z,1.53
2018-06-21T17:51:44.789Z,2.13
2018-06-21T17:54:12.855Z,1.40
2018-06-21T17:56:40.142Z,1.50
2018-06-21T17:59:07.689Z,2.20
2018-06-21T18:01:35.133Z,1.47
2018-06-21T18:04:02.705Z,1.07
2018-06-21T18:06:30.013Z,1.50
2018-06-21T18:08:57.343Z,2.00
2018-06-21T18:11:24.661Z,1.70
2018-06-21T18:13:51.989Z,1.60
2018-06-21T18:16:19.305Z,1.73
2018-06-21T18:18:46.653Z,1.67
2018-06-21T18:21:13.957Z,1.83
2018-06-21T18:23:41.286Z,1.63
2018-06-21T18:26:08.600Z,2.40
2018-06-21T18:28:35.881Z,1.70
2018-06-21T18:31:03.153Z,2.30
2018-06-21T18:33:30.468Z,1.30
2018-06-21T18:35:57.777Z,1.77
2018-06-21T18:38:25.057Z,1.50
2018-06-21T18:40:52.393Z,1.57
2018-06-21T18:43:19.722Z,1.53
2018-06-21T18:45:47.201Z,1.90
2018-06-21T18:48:14.489Z,1.53
2018-06-21T18:50:41.825Z,1.57
2018-06-21T18:53:09.097Z,1.30
2018-06-21T18:55:36.391Z,1.23
2018-06-21T19:00:36.269Z,2.17
2018-06-21T19:03:03.557Z,1.30
2018-06-21T19:05:30.865Z,1.40
2018-06-21T19:08:03.776Z,1.43
2018-06-21T19:10:36.850Z,2.20
2018-06-21T19:13:04.113Z,1.77
2018-06-21T19:15:31.388Z,2.30
2018-06-21T19:17:58.711Z,1.40
2018-06-21T19:20:26.001Z,1.27
2018-06-21T19:22:53.268Z,1.33
2018-06-21T19:25:20.566Z,1.40
2018-06-21T19:27:47.923Z,1.27
2018-06-21T19:30:15.213Z,1.23
2018-06-21T19:32:42.569Z,1.50
2018-06-21T19:35:09.893Z,1.33
2018-06-21T19:37:37.152Z,1.10
2018-06-21T19:40:04.581Z,1.30
2018-06-21T19:42:31.856Z,2.23
2018-06-21T19:44:59.145Z,1.60
2018-06-21T19:47:26.673Z,1.40
2018-06-21T19:49:53.997Z,2.00
2018-06-21T19:52:21.293Z,1.50
2018-06-21T19:54:48.570Z,1.50
2018-06-21T19:57:15.855Z,2.60
2018-06-21T19:59:43.138Z,2.23
2018-06-21T20:02:10.439Z,1.97
2018-06-21T20:04:37.732Z,1.30
2018-06-21T20:07:05.028Z,2.60
2018-06-21T20:09:32.323Z,1.77
2018-06-21T20:11:59.605Z,1.80
2018-06-21T20:14:26.889Z,2.10
2018-06-21T20:16:54.201Z,1.83
2018-06-21T20:19:21.469Z,2.27
2018-06-21T20:21:48.740Z,2.07
2018-06-21T20:24:16.087Z,2.27
2018-06-21T20:26:43.386Z,1.60
2018-06-21T20:29:16.368Z,1.63
2018-06-21T20:31:43.661Z,2.20
2018-06-21T20:34:10.986Z,1.93
2018-06-21T20:36:38.277Z,1.97
2018-06-21T20:39:05.889Z,2.20
2018-06-21T20:41:33.208Z,2.03
2018-06-21T20:44:00.571Z,2.17
2018-06-21T20:46:27.853Z,2.27
2018-06-21T20:48:55.410Z,1.70
2018-06-21T20:51:22.685Z,2.40
2018-06-21T20:53:49.996Z,2.20
2018-06-21T20:56:17.300Z,2.23
2018-06-21T20:58:44.573Z,2.07
2018-06-21T21:01:11.833Z,2.40
2018-06-21T21:03:39.186Z,3.83
2018-06-21T21:06:06.420Z,2.20
2018-06-21T21:08:33.697Z,2.23
2018-06-21T21:11:00.989Z,2.23
2018-06-21T21:13:28.248Z,1.83
2018-06-21T21:15:55.525Z,1.93
2018-06-21T21:18:22.830Z,2.60
2018-06-21T21:20:50.345Z,2.13
2018-06-21T21:23:17.634Z,3.50
2018-06-21T21:25:44.894Z,2.63
2018-06-21T21:28:12.168Z,2.70
2018-06-21T21:30:39.514Z,2.13
2018-06-21T21:33:06.828Z,2.50
2018-06-21T21:35:34.092Z,2.67
2018-06-21T21:38:01.394Z,2.60
2018-06-21T21:40:28.647Z,2.13
2018-06-21T21:42:55.903Z,2.30
2018-06-21T21:45:23.159Z,2.63
2018-06-21T21:47:50.437Z,1.90
2018-06-21T21:50:17.964Z,1.70
2018-06-21T21:52:45.271Z,1.97
2018-06-21T21:55:12.513Z,2.73
2018-06-21T21:57:39.773Z,2.33
2018-06-21T22:00:11.655Z,2.47
2018-06-21T22:02:38.918Z,2.50
2018-06-21T22:05:06.173Z,3.87
2018-06-21T22:07:33.474Z,2.00
2018-06-21T22:10:00.733Z,1.30
2018-06-21T22:12:27.988Z,3.27
2018-06-21T22:14:55.247Z,2.30
2018-06-21T22:17:22.534Z,1.50
2018-06-21T22:19:49.793Z,2.53
2018-06-21T22:22:17.038Z,2.10
2018-06-21T22:24:44.305Z,2.63
2018-06-21T22:27:11.577Z,1.80
2018-06-21T22:29:38.860Z,1.97
2018-06-21T22:32:06.111Z,1.87
2018-06-21T22:34:33.392Z,2.13
2018-06-21T22:37:00.660Z,2.33
2018-06-21T22:39:27.920Z,3.17
2018-06-21T22:41:55.197Z,2.17
2018-06-21T22:44:22.461Z,2.07
2018-06-21T22:46:49.741Z,1.60
2018-06-21T22:49:17.124Z,2.10
2018-06-21T22:51:44.540Z,1.90
2018-06-21T22:54:11.796Z,2.37
2018-06-21T22:56:39.086Z,1.53
2018-06-21T22:59:06.365Z,2.13
2018-06-21T23:01:33.644Z,2.70
2018-06-21T23:04:00.897Z,1.40
2018-06-21T23:06:28.192Z,2.20
2018-06-21T23:08:55.454Z,2.13
2018-06-21T23:11:22.725Z,2.27
2018-06-21T23:13:49.999Z,1.47
2018-06-21T23:16:17.262Z,1.90
2018-06-21T23:18:50.319Z,1.60
2018-06-21T23:21:17.584Z,1.53
2018-06-21T23:23:44.849Z,2.60
2018-06-21T23:26:12.105Z,2.73
2018-06-21T23:28:39.369Z,1.83
2018-06-21T23:31:06.617Z,1.70
2018-06-21T23:33:33.914Z,2.27
2018-06-21T23:36:01.769Z,1.20
2018-06-21T23:38:29.219Z,1.83
2018-06-21T23:40:56.496Z,2.07
2018-06-21T23:43:23.760Z,1.67
2018-06-21T23:45:51.018Z,1.80
2018-06-21T23:48:18.461Z,1.73
2018-06-21T23:50:45.724Z,2.37
2018-06-21T23:53:13.138Z,1.63
2018-06-21T23:55:40.538Z,2.90
2018-06-21T23:58:07.801Z,1.93
